Time;durP1;ratioP1;P1;durP2;ratioP2;P2;SDS_P1;SDS_P2;PMS_P1;PMS_P2;Temp;Humidity;BMP_temperature;BMP_pressure;BME280_temperature;BME280_humidity;BME280_pressure;Samples;Min_cycle;Max_cycle;Signal;HPM_P1;HPM_P2
2021/05/09 00:02:12;;;;;;;6.50;4.63;;;5.80;91.10;;;;;;4976059;28;20019;-83
2021/05/09 00:04:38;;;;;;;6.25;4.88;;;5.70;91.20;;;;;;4976330;28;20430;-83
2021/05/09 00:07:03;;;;;;;6.65;4.38;;;5.70;91.20;;;;;;4976291;28;20034;-83
2021/05/09 00:09:29;;;;;;;8.18;4.32;;;5.70;91.30;;;;;;5007623;28;20038;-83
2021/05/09 00:11:55;;;;;;;6.55;4.30;;;5.60;91.30;;;;;;4976058;28;20055;-83
2021/05/09 00:14:22;;;;;;;5.72;4.45;;;5.60;91.40;;;;;;4975817;28;20484;-83
2021/05/09 00:16:48;;;;;;;8.15;4.95;;;5.60;91.40;;;;;;5007721;28;20382;-83
2021/05/09 00:19:13;;;;;;;5.82;4.47;;;5.60;91.50;;;;;;4975757;28;20034;-82
2021/05/09 00:21:39;;;;;;;5.22;4.53;;;5.50;91.50;;;;;;5009207;28;20675;-83
2021/05/09 00:24:05;;;;;;;5.60;4.78;;;5.50;91.60;;;;;;4976338;28;20019;-83
2021/05/09 00:26:32;;;;;;;5.53;4.70;;;5.50;91.70;;;;;;5007048;28;20061;-82
2021/05/09 00:28:57;;;;;;;7.00;4.70;;;5.50;91.70;;;;;;4976040;28;20030;-83
2021/05/09 00:31:23;;;;;;;6.15;4.85;;;5.50;91.80;;;;;;4975906;28;20026;-83
2021/05/09 00:33:49;;;;;;;7.55;4.88;;;5.50;91.80;;;;;;5007226;28;20370;-83
2021/05/09 00:36:14;;;;;;;6.00;4.63;;;5.50;91.90;;;;;;5007370;28;20035;-83
2021/05/09 00:38:41;;;;;;;7.80;4.63;;;5.40;91.90;;;;;;4976145;28;20027;-82
2021/05/09 00:41:06;;;;;;;12.20;5.00;;;5.40;92.00;;;;;;4976233;28;20031;-83
2021/05/09 00:43:32;;;;;;;5.88;4.40;;;5.40;92.00;;;;;;4976564;28;20092;-83
2021/05/09 00:45:58;;;;;;;6.28;4.80;;;5.40;92.00;;;;;;5007197;28;20110;-82
2021/05/09 00:48:23;;;;;;;8.52;5.13;;;5.40;92.10;;;;;;5007099;28;20035;-83
2021/05/09 00:50:49;;;;;;;6.53;5.10;;;5.40;92.20;;;;;;4975823;28;20039;-83
2021/05/09 00:53:20;;;;;;;6.80;5.28;;;5.40;92.20;;;;;;4976091;28;20043;-83
2021/05/09 00:55:46;;;;;;;7.03;6.00;;;5.30;92.30;;;;;;4984284;28;20030;-83
2021/05/09 00:58:14;;;;;;;6.30;5.10;;;5.30;92.30;;;;;;4976436;28;20090;-82
2021/05/09 01:00:40;;;;;;;8.73;5.35;;;5.30;92.40;;;;;;4976242;28;20025;-84
2021/05/09 01:03:07;;;;;;;13.18;5.47;;;5.30;92.40;;;;;;4976471;28;20034;-84
2021/05/09 01:05:33;;;;;;;7.47;5.22;;;5.30;92.50;;;;;;4976072;28;20058;-83
2021/05/09 01:08:01;;;;;;;6.18;5.30;;;5.30;92.50;;;;;;4978657;28;20030;-83
2021/05/09 01:10:27;;;;;;;8.68;5.15;;;5.30;92.60;;;;;;5010761;28;20054;-84
2021/05/09 01:12:52;;;;;;;11.27;5.55;;;5.30;92.60;;;;;;5010931;28;20035;-83
2021/05/09 01:15:18;;;;;;;8.27;5.40;;;5.30;92.60;;;;;;5010786;28;20051;-83
2021/05/09 01:17:45;;;;;;;5.90;5.13;;;5.30;92.60;;;;;;4979561;28;20416;-84
2021/05/09 01:20:13;;;;;;;5.82;5.18;;;5.30;92.70;;;;;;4979229;28;20023;-84
2021/05/09 01:22:40;;;;;;;11.20;5.28;;;5.20;92.70;;;;;;4979031;28;20026;-83
2021/05/09 01:25:07;;;;;;;10.05;5.40;;;5.20;92.70;;;;;;5010413;28;20550;-83
2021/05/09 01:27:34;;;;;;;7.63;5.30;;;5.20;92.70;;;;;;4978698;28;20061;-84
2021/05/09 01:30:00;;;;;;;6.13;5.15;;;5.20;92.80;;;;;;4979275;28;20030;-83
2021/05/09 01:32:26;;;;;;;7.38;5.47;;;5.20;92.80;;;;;;5012062;28;20482;-82
2021/05/09 01:34:52;;;;;;;7.72;5.32;;;5.20;92.90;;;;;;4979728;28;20114;-83
2021/05/09 01:37:17;;;;;;;7.88;5.68;;;5.20;92.90;;;;;;5010734;28;20026;-84
2021/05/09 01:39:43;;;;;;;9.52;5.93;;;5.20;92.90;;;;;;4978463;28;20062;-82
2021/05/09 01:42:09;;;;;;;7.20;5.20;;;5.20;92.90;;;;;;5008961;28;20027;-82
2021/05/09 01:44:34;;;;;;;7.32;5.38;;;5.20;93.00;;;;;;4978225;28;20057;-82
2021/05/09 01:47:00;;;;;;;6.93;5.20;;;5.20;93.00;;;;;;4978472;28;20462;-82
2021/05/09 01:49:26;;;;;;;6.72;5.30;;;5.20;93.00;;;;;;4978329;28;20058;-82
2021/05/09 01:51:54;;;;;;;7.13;5.40;;;5.20;93.10;;;;;;4976899;28;20113;-82
2021/05/09 01:54:20;;;;;;;13.50;5.10;;;5.10;93.00;;;;;;5007965;28;20066;-82
2021/05/09 01:56:46;;;;;;;11.25;6.07;;;5.10;93.00;;;;;;5009026;28;20046;-82
2021/05/09 01:59:11;;;;;;;6.95;5.18;;;5.10;93.00;;;;;;5009461;28;20418;-82
2021/05/09 02:01:37;;;;;;;5.80;5.03;;;5.10;93.10;;;;;;5009553;28;20109;-82
2021/05/09 02:04:03;;;;;;;6.95;5.03;;;5.00;93.10;;;;;;5009585;28;20406;-82
2021/05/09 02:06:29;;;;;;;8.40;5.43;;;5.10;93.10;;;;;;4977031;28;20405;-82
2021/05/09 02:08:55;;;;;;;8.38;5.22;;;5.00;93.20;;;;;;4978151;28;20050;-83
2021/05/09 02:11:21;;;;;;;6.90;5.25;;;5.00;93.20;;;;;;4979060;28;20033;-82
2021/05/09 02:13:47;;;;;;;8.48;5.75;;;5.00;93.20;;;;;;4978431;28;20053;-82
2021/05/09 02:16:12;;;;;;;6.85;5.32;;;5.00;93.30;;;;;;4979327;28;20074;-82
2021/05/09 02:18:38;;;;;;;6.07;5.18;;;5.00;93.40;;;;;;4989974;28;20054;-82
2021/05/09 02:21:04;;;;;;;8.18;5.32;;;5.00;93.40;;;;;;5010885;28;20019;-82
2021/05/09 02:23:30;;;;;;;7.88;5.47;;;5.00;93.40;;;;;;5010053;28;20114;-83
2021/05/09 02:25:55;;;;;;;6.53;5.00;;;5.00;93.50;;;;;;5009784;28;20752;-83
2021/05/09 02:28:21;;;;;;;9.32;5.18;;;5.00;93.60;;;;;;4981846;28;20051;-83
2021/05/09 02:30:47;;;;;;;6.47;4.97;;;5.10;93.60;;;;;;4978467;28;20205;-82
2021/05/09 02:33:13;;;;;;;7.68;5.68;;;5.10;93.60;;;;;;4982025;28;20031;-81
2021/05/09 02:35:39;;;;;;;7.20;4.93;;;5.10;93.80;;;;;;4981394;28;20440;-82
2021/05/09 02:38:06;;;;;;;5.35;4.50;;;5.40;95.60;;;;;;4990093;28;20051;-82
2021/05/09 02:40:32;;;;;;;7.28;4.28;;;6.10;97.50;;;;;;4987903;28;20023;-82
2021/05/09 02:42:57;;;;;;;6.40;3.92;;;6.90;98.20;;;;;;4981213;28;20034;-82
2021/05/09 02:45:23;;;;;;;5.85;3.95;;;7.80;98.50;;;;;;4977772;28;20030;-83
2021/05/09 02:47:49;;;;;;;5.47;4.05;;;8.80;97.40;;;;;;4977775;28;20031;-83
2021/05/09 02:50:15;;;;;;;6.65;3.58;;;9.70;95.90;;;;;;5008646;28;20042;-81
2021/05/09 02:52:41;;;;;;;4.78;4.10;;;10.60;94.10;;;;;;5008759;28;20035;-82
2021/05/09 02:55:07;;;;;;;5.53;3.60;;;11.50;92.40;;;;;;4977852;28;20118;-82
2021/05/09 02:57:33;;;;;;;6.82;3.47;;;12.40;90.40;;;;;;4976204;28;20035;-80
2021/05/09 03:00:01;;;;;;;3.83;3.40;;;13.20;87.00;;;;;;4975215;28;20023;-81
2021/05/09 03:02:27;;;;;;;4.25;3.60;;;14.00;83.20;;;;;;4975392;28;20023;-80
2021/05/09 03:04:52;;;;;;;3.78;3.47;;;14.70;79.20;;;;;;4975378;28;20101;-81
2021/05/09 03:07:18;;;;;;;3.92;3.38;;;15.40;76.30;;;;;;5006343;28;20106;-82
2021/05/09 03:09:44;;;;;;;10.20;3.70;;;16.20;73.40;;;;;;4974967;28;20421;-81
2021/05/09 03:12:09;;;;;;;4.88;3.42;;;16.90;70.80;;;;;;4975284;28;20029;-81
2021/05/09 03:14:35;;;;;;;5.88;3.33;;;17.70;68.20;;;;;;4974867;28;20034;-81
2021/05/09 03:17:01;;;;;;;4.18;3.40;;;18.40;65.30;;;;;;4974717;28;20082;-81
2021/05/09 03:19:27;;;;;;;3.92;3.08;;;19.00;62.70;;;;;;4975110;28;20520;-82
2021/05/09 03:21:52;;;;;;;4.10;3.20;;;19.70;60.60;;;;;;4975590;28;20050;-81
2021/05/09 03:24:18;;;;;;;4.60;3.60;;;20.40;58.70;;;;;;4974737;28;20038;-81
2021/05/09 03:26:44;;;;;;;4.15;3.15;;;21.10;56.60;;;;;;4974926;28;20589;-83
2021/05/09 03:29:10;;;;;;;5.22;3.20;;;21.60;54.70;;;;;;4976337;28;20034;-83
2021/05/09 03:31:36;;;;;;;3.28;2.90;;;22.20;53.00;;;;;;4976670;28;20081;-83
2021/05/09 03:34:02;;;;;;;5.22;3.03;;;22.80;51.20;;;;;;5007467;28;20023;-83
2021/05/09 03:36:28;;;;;;;5.45;3.53;;;23.20;49.90;;;;;;4975826;28;20037;-86
2021/05/09 03:38:53;;;;;;;7.50;3.50;;;23.70;48.60;;;;;;4975616;28;20035;-86
2021/05/09 03:41:21;;;;;;;5.65;3.70;;;24.20;47.30;;;;;;4975423;28;20058;-86
2021/05/09 03:43:47;;;;;;;4.07;3.30;;;24.60;46.30;;;;;;5008051;28;20429;-85
2021/05/09 03:46:13;;;;;;;5.28;3.33;;;25.00;45.00;;;;;;4976866;28;20037;-86
2021/05/09 03:48:39;;;;;;;6.75;3.75;;;25.40;44.20;;;;;;4976838;28;20117;-86
2021/05/09 03:51:05;;;;;;;8.05;3.25;;;25.70;43.30;;;;;;5012653;28;20031;-86
2021/05/09 03:53:31;;;;;;;5.38;3.40;;;26.10;42.50;;;;;;4987692;28;20031;-86
2021/05/09 03:55:59;;;;;;;4.45;3.03;;;26.50;41.90;;;;;;4978548;28;20034;-86
2021/05/09 03:58:26;;;;;;;3.47;3.17;;;26.70;40.90;;;;;;4977106;28;20029;-86
2021/05/09 04:00:51;;;;;;;4.40;3.15;;;27.10;40.50;;;;;;4976828;28;20030;-86
2021/05/09 04:03:22;;;;;;;4.95;3.15;;;27.50;39.80;;;;;;4975615;28;20027;-86
2021/05/09 04:05:51;;;;;;;4.15;3.20;;;27.80;39.00;;;;;;4975329;28;20077;-86
2021/05/09 04:08:18;;;;;;;4.18;3.10;;;28.10;38.80;;;;;;4974970;28;20046;-87
2021/05/09 04:10:43;;;;;;;3.25;2.95;;;28.40;38.20;;;;;;4975230;28;20026;-86
2021/05/09 04:13:09;;;;;;;8.00;3.10;;;28.70;37.70;;;;;;5006255;28;20039;-86
2021/05/09 04:15:35;;;;;;;5.15;3.05;;;28.90;37.20;;;;;;4975310;28;20374;-84
2021/05/09 04:18:01;;;;;;;2.80;2.60;;;29.20;36.80;;;;;;4974066;28;20102;-82
2021/05/09 04:20:26;;;;;;;4.03;3.10;;;29.60;36.50;;;;;;5005252;28;20034;-82
2021/05/09 04:22:52;;;;;;;3.60;3.05;;;30.00;36.10;;;;;;4972795;28;20457;-82
2021/05/09 04:25:18;;;;;;;4.97;3.20;;;30.30;35.70;;;;;;5005725;28;20030;-82
2021/05/09 04:27:43;;;;;;;3.50;2.90;;;30.60;35.20;;;;;;4979233;28;20046;-82
2021/05/09 04:30:10;;;;;;;3.08;2.88;;;30.90;34.60;;;;;;4987208;28;20037;-84
2021/05/09 04:32:36;;;;;;;9.57;3.60;;;31.10;34.20;;;;;;4982871;28;20027;-84
2021/05/09 04:35:01;;;;;;;4.57;3.00;;;31.20;33.90;;;;;;4975466;28;20081;-84
2021/05/09 04:37:27;;;;;;;4.88;2.90;;;31.50;33.60;;;;;;4975025;28;20033;-84
2021/05/09 04:39:53;;;;;;;3.65;2.88;;;31.70;33.30;;;;;;4975392;28;20531;-84
2021/05/09 04:42:18;;;;;;;4.95;3.17;;;32.00;33.10;;;;;;4975772;28;20027;-84
2021/05/09 04:44:44;;;;;;;3.83;3.00;;;32.20;32.70;;;;;;4978833;28;20038;-84
2021/05/09 04:47:09;;;;;;;6.68;3.50;;;32.40;32.30;;;;;;4980583;28;20829;-82
2021/05/09 04:49:35;;;;;;;6.22;3.28;;;32.60;32.10;;;;;;4980494;28;20026;-82
2021/05/09 04:52:01;;;;;;;8.82;3.40;;;32.80;31.80;;;;;;4978169;28;20038;-80
2021/05/09 04:54:26;;;;;;;4.22;2.90;;;33.00;31.50;;;;;;4976209;28;20030;-79
2021/05/09 04:56:52;;;;;;;4.55;3.00;;;33.20;31.30;;;;;;4976073;28;20466;-80
2021/05/09 04:59:18;;;;;;;2.90;2.70;;;33.40;31.10;;;;;;4975742;28;20019;-79
2021/05/09 05:01:43;;;;;;;4.75;2.78;;;33.60;30.70;;;;;;4975492;28;20378;-80
2021/05/09 05:04:09;;;;;;;3.92;2.80;;;33.80;30.60;;;;;;4975228;28;20018;-79
2021/05/09 05:06:35;;;;;;;2.65;2.45;;;34.10;30.20;;;;;;4975307;28;20035;-80
2021/05/09 05:09:03;;;;;;;5.35;2.60;;;34.30;30.00;;;;;;5007431;28;20038;-76
2021/05/09 05:11:30;;;;;;;3.13;2.47;;;34.40;29.80;;;;;;4975161;28;20031;-80
2021/05/09 05:13:55;;;;;;;4.55;2.80;;;34.70;29.80;;;;;;4974926;28;20026;-80
2021/05/09 05:16:24;;;;;;;4.53;2.40;;;34.90;29.60;;;;;;4975109;28;20139;-83
2021/05/09 05:18:49;;;;;;;4.75;2.80;;;35.10;29.20;;;;;;4975113;28;20059;-81
2021/05/09 05:21:15;;;;;;;5.00;2.40;;;35.20;29.20;;;;;;4974819;28;20054;-81
2021/05/09 05:23:41;;;;;;;6.00;2.72;;;35.30;29.00;;;;;;4973978;28;20023;-79
2021/05/09 05:26:07;;;;;;;3.90;2.50;;;35.40;29.00;;;;;;4974464;28;20425;-80
2021/05/09 05:28:33;;;;;;;2.90;2.65;;;35.60;29.00;;;;;;4974785;28;20050;-81
2021/05/09 05:30:59;;;;;;;4.00;2.40;;;35.70;28.70;;;;;;4975407;28;20035;-88
2021/05/09 05:33:29;;;;;;;5.93;2.67;;;35.80;28.40;;;;;;5006867;28;20031;-86
2021/05/09 05:35:56;;;;;;;4.97;3.10;;;36.00;28.50;;;;;;4976211;28;20396;-84
2021/05/09 05:38:22;;;;;;;7.78;3.05;;;35.90;28.10;;;;;;5006705;28;20113;-83
2021/05/09 05:40:50;;;;;;;4.45;2.83;;;35.90;28.20;;;;;;4975557;28;20050;-82
2021/05/09 05:43:16;;;;;;;2.85;2.63;;;36.00;28.30;;;;;;5010507;28;20137;-80
2021/05/09 05:45:42;;;;;;;7.45;2.97;;;36.10;28.20;;;;;;4976895;28;20023;-81
2021/05/09 05:48:08;;;;;;;8.25;3.40;;;36.30;28.00;;;;;;4975263;28;20117;-81
2021/05/09 05:50:33;;;;;;;8.82;2.97;;;36.30;28.00;;;;;;4975794;28;20049;-80
2021/05/09 05:52:59;;;;;;;6.07;2.95;;;36.40;28.00;;;;;;4974795;28;20029;-82
2021/05/09 05:55:25;;;;;;;7.35;3.15;;;36.50;28.10;;;;;;4974424;28;20418;-81
2021/05/09 05:57:50;;;;;;;3.78;2.90;;;36.60;27.90;;;;;;5006044;28;20034;-79
2021/05/09 06:00:17;;;;;;;4.32;2.80;;;36.70;27.70;;;;;;5006070;28;20046;-81
2021/05/09 06:02:42;;;;;;;4.25;3.03;;;36.60;27.60;;;;;;4975042;28;20019;-79
2021/05/09 06:05:09;;;;;;;3.70;3.28;;;36.60;27.60;;;;;;4975627;28;20338;-83
2021/05/09 06:07:35;;;;;;;2.80;2.55;;;36.60;27.60;;;;;;4974644;28;20106;-82
2021/05/09 06:10:00;;;;;;;4.03;2.20;;;36.50;27.60;;;;;;4973998;28;20117;-82
2021/05/09 06:12:26;;;;;;;7.80;2.80;;;36.50;27.50;;;;;;5006066;28;20038;-83
2021/05/09 06:14:52;;;;;;;6.38;3.53;;;36.50;27.40;;;;;;4974347;28;20026;-83
2021/05/09 06:17:17;;;;;;;3.60;2.38;;;36.50;27.40;;;;;;4975061;28;20074;-79
2021/05/09 06:19:43;;;;;;;2.50;2.30;;;36.50;27.20;;;;;;4974119;28;20134;-80
2021/05/09 06:22:09;;;;;;;7.82;3.72;;;36.50;27.10;;;;;;4975521;28;20043;-79
2021/05/09 06:24:34;;;;;;;2.33;2.13;;;36.50;27.10;;;;;;5006363;28;20031;-79
2021/05/09 06:27:00;;;;;;;3.58;2.90;;;36.50;27.10;;;;;;4975418;28;20097;-79
2021/05/09 06:29:26;;;;;;;5.22;3.72;;;36.50;26.90;;;;;;4975056;28;20062;-80
2021/05/09 06:31:51;;;;;;;5.13;2.47;;;36.50;27.00;;;;;;4975000;28;20031;-79
2021/05/09 06:34:17;;;;;;;2.80;2.47;;;36.50;26.90;;;;;;4975093;28;20481;-79
2021/05/09 06:36:43;;;;;;;4.57;2.67;;;36.50;26.80;;;;;;4974763;28;20165;-81
2021/05/09 06:39:09;;;;;;;3.75;2.10;;;36.50;26.70;;;;;;4974975;28;20109;-80
2021/05/09 06:41:35;;;;;;;5.60;2.20;;;36.40;26.60;;;;;;4974846;28;20469;-80
2021/05/09 06:44:04;;;;;;;5.30;2.80;;;36.10;26.50;;;;;;4973533;28;20093;-79
2021/05/09 06:46:30;;;;;;;3.30;2.33;;;36.10;26.60;;;;;;4974662;28;20050;-79
2021/05/09 06:48:56;;;;;;;10.73;2.35;;;35.90;26.50;;;;;;4974456;28;20059;-78
2021/05/09 06:51:25;;;;;;;4.25;2.25;;;35.80;26.50;;;;;;4978308;28;20031;-79
2021/05/09 06:53:50;;;;;;;5.38;2.33;;;35.70;26.60;;;;;;4973735;28;20019;-80
2021/05/09 06:56:16;;;;;;;6.05;2.30;;;35.60;26.50;;;;;;4974220;28;20041;-79
2021/05/09 06:58:42;;;;;;;2.85;2.47;;;35.50;26.50;;;;;;4974562;28;20030;-81
2021/05/09 07:01:08;;;;;;;3.15;2.58;;;35.20;26.20;;;;;;4972599;28;20054;-77
2021/05/09 07:03:33;;;;;;;7.47;2.33;;;34.70;26.30;;;;;;4971780;28;20035;-76
2021/05/09 07:05:59;;;;;;;7.38;2.72;;;34.50;26.70;;;;;;4973104;28;20058;-77
2021/05/09 07:08:25;;;;;;;2.35;2.10;;;34.40;26.80;;;;;;4972706;28;20038;-76
2021/05/09 07:10:54;;;;;;;6.00;2.47;;;34.30;26.80;;;;;;4972514;28;20386;-76
2021/05/09 07:13:19;;;;;;;8.68;2.22;;;34.10;26.80;;;;;;4972206;28;20031;-77
2021/05/09 07:15:46;;;;;;;2.47;2.15;;;34.00;26.90;;;;;;4971887;28;20061;-76
2021/05/09 07:18:13;;;;;;;3.55;2.25;;;34.00;27.10;;;;;;4970837;28;20119;-75
2021/05/09 07:20:43;;;;;;;3.05;2.28;;;33.90;26.90;;;;;;4972485;28;20033;-75
2021/05/09 07:23:11;;;;;;;4.90;2.30;;;33.80;26.80;;;;;;4972556;28;20031;-76
2021/05/09 07:25:36;;;;;;;4.07;1.80;;;33.60;26.80;;;;;;4972697;28;20026;-75
2021/05/09 07:28:07;;;;;;;2.15;1.92;;;33.50;26.90;;;;;;4972445;28;20411;-77
2021/05/09 07:30:34;;;;;;;5.95;2.70;;;33.30;27.10;;;;;;4972281;28;20457;-76
2021/05/09 07:33:00;;;;;;;4.00;2.20;;;33.00;27.30;;;;;;4972342;28;20031;-77
2021/05/09 07:35:26;;;;;;;3.13;1.98;;;32.80;27.10;;;;;;4971872;28;20354;-77
2021/05/09 07:37:52;;;;;;;2.80;2.08;;;32.40;27.00;;;;;;4970988;28;20027;-76
2021/05/09 07:40:22;;;;;;;5.13;1.92;;;32.30;27.30;;;;;;5003764;28;20029;-75
2021/05/09 07:42:48;;;;;;;3.80;2.20;;;32.20;27.20;;;;;;4972654;28;20517;-77
2021/05/09 07:45:19;;;;;;;5.80;2.33;;;31.90;27.20;;;;;;4973013;28;20034;-77
2021/05/09 07:47:45;;;;;;;4.68;2.63;;;31.60;27.20;;;;;;4972653;28;20049;-76
2021/05/09 07:50:12;;;;;;;2.20;1.92;;;31.30;27.30;;;;;;4972837;28;20441;-76
2021/05/09 07:52:38;;;;;;;2.05;1.85;;;31.00;27.50;;;;;;4972716;28;20031;-76
2021/05/09 07:55:05;;;;;;;3.17;2.30;;;30.80;27.50;;;;;;4972511;28;20054;-77
2021/05/09 07:57:31;;;;;;;8.88;1.80;;;30.70;27.70;;;;;;5004270;28;20113;-77
2021/05/09 07:59:57;;;;;;;3.15;1.90;;;30.60;27.70;;;;;;4972663;28;20049;-77
2021/05/09 08:02:23;;;;;;;7.20;2.30;;;30.40;27.60;;;;;;4972584;28;20106;-77
2021/05/09 08:04:49;;;;;;;1.95;1.77;;;29.70;27.60;;;;;;5003715;28;20144;-76
2021/05/09 08:07:15;;;;;;;4.90;2.50;;;29.20;28.10;;;;;;4972703;28;20094;-76
2021/05/09 08:09:40;;;;;;;4.65;2.35;;;28.50;28.10;;;;;;4972851;28;20084;-76
2021/05/09 08:12:06;;;;;;;3.83;2.00;;;27.80;28.30;;;;;;4972622;28;20410;-76
2021/05/09 08:14:32;;;;;;;3.92;2.10;;;27.20;28.60;;;;;;4972769;28;20034;-76
2021/05/09 08:16:58;;;;;;;6.07;2.38;;;26.70;28.70;;;;;;4973911;28;20023;-76
2021/05/09 08:19:24;;;;;;;3.05;2.20;;;26.40;29.00;;;;;;4976469;28;20030;-76
2021/05/09 08:21:50;;;;;;;5.07;3.53;;;26.00;29.10;;;;;;4976626;28;20023;-76
2021/05/09 08:24:17;;;;;;;3.08;2.78;;;25.50;29.10;;;;;;4976423;28;20462;-77
2021/05/09 08:26:43;;;;;;;6.95;2.60;;;25.10;29.50;;;;;;4976493;28;20370;-78
2021/05/09 08:29:09;;;;;;;3.92;1.92;;;24.80;29.90;;;;;;4976435;28;20125;-79
2021/05/09 08:31:36;;;;;;;2.40;1.95;;;24.30;29.90;;;;;;5008083;28;20027;-79
2021/05/09 08:34:02;;;;;;;5.97;2.50;;;23.90;30.30;;;;;;4976855;28;20023;-79
2021/05/09 08:36:28;;;;;;;3.35;2.17;;;23.90;30.70;;;;;;4978821;28;20022;-78
2021/05/09 08:38:53;;;;;;;2.65;2.10;;;24.10;30.80;;;;;;4980489;28;20041;-81
2021/05/09 08:41:19;;;;;;;2.40;2.20;;;24.00;30.70;;;;;;4977566;28;20065;-77
2021/05/09 08:43:45;;;;;;;2.60;2.10;;;24.00;30.80;;;;;;4977332;28;20034;-77
2021/05/09 08:46:14;;;;;;;4.63;2.00;;;23.90;31.00;;;;;;4977558;28;20069;-78
2021/05/09 08:48:41;;;;;;;6.65;2.42;;;23.60;30.80;;;;;;4977098;28;20055;-78
2021/05/09 08:51:07;;;;;;;7.30;3.08;;;23.30;31.10;;;;;;4975064;28;20026;-78
2021/05/09 08:53:33;;;;;;;4.53;2.40;;;23.00;31.70;;;;;;4976192;28;20037;-78
2021/05/09 08:55:59;;;;;;;4.90;2.47;;;22.60;31.90;;;;;;4975947;28;20031;-78
2021/05/09 08:58:25;;;;;;;4.93;2.60;;;22.20;32.10;;;;;;4975541;28;20030;-78
2021/05/09 09:00:51;;;;;;;5.05;2.78;;;22.00;32.90;;;;;;4975917;28;20081;-78
2021/05/09 09:03:17;;;;;;;6.97;2.88;;;21.80;33.30;;;;;;4975631;28;20073;-79
2021/05/09 09:05:45;;;;;;;10.60;2.63;;;21.90;33.60;;;;;;4975859;28;20030;-77
2021/05/09 09:08:12;;;;;;;4.10;2.35;;;22.20;33.40;;;;;;4975786;28;20022;-79
2021/05/09 09:10:46;;;;;;;2.20;2.00;;;22.40;32.90;;;;;;4975924;28;20034;-78
2021/05/09 09:13:44;;;;;;;5.35;3.70;;;22.30;32.60;;;;;;4975250;28;20015;-78
2021/05/09 09:16:12;;;;;;;8.73;2.30;;;22.20;32.80;;;;;;4942669;28;20045;-78
2021/05/09 09:18:43;;;;;;;3.10;2.05;;;22.00;32.80;;;;;;4975754;28;20023;-78
2021/05/09 09:21:25;;;;;;;5.32;2.50;;;21.70;33.10;;;;;;4976562;28;20098;-78
2021/05/09 09:23:52;;;;;;;;;;;21.40;33.40;;;;;;4975958;28;20035;-79
2021/05/09 09:26:44;;;;;;;7.05;3.08;;;21.20;33.50;;;;;;4974033;28;20349;-78
2021/05/09 09:29:20;;;;;;;3.00;2.22;;;21.20;34.20;;;;;;4971228;28;20069;-78
2021/05/09 09:31:51;;;;;;;3.75;2.60;;;21.40;34.00;;;;;;4975661;28;20023;-78
2021/05/09 09:34:16;;;;;;;3.08;1.98;;;21.60;34.00;;;;;;4975201;28;20019;-77
2021/05/09 09:36:42;;;;;;;2.55;2.35;;;21.60;33.60;;;;;;4974923;28;20034;-76
2021/05/09 09:39:10;;;;;;;7.15;2.78;;;21.70;33.80;;;;;;4975148;28;20031;-76
2021/05/09 09:41:49;;;;;;;2.92;2.63;;;21.90;34.10;;;;;;4975015;28;20041;-77
2021/05/09 09:44:16;;;;;;;10.85;2.58;;;22.00;33.70;;;;;;4974849;28;20030;-77
2021/05/09 09:46:51;;;;;;;7.90;2.35;;;22.00;33.70;;;;;;4974757;28;20077;-76
2021/05/09 09:49:22;;;;;;;3.20;2.15;;;22.00;33.80;;;;;;4975736;28;20050;-69
2021/05/09 09:52:28;;;;;;;3.67;2.40;;;22.20;33.50;;;;;;4975428;28;20038;-76
2021/05/09 09:54:54;;;;;;;7.75;3.30;;;22.10;33.40;;;;;;4963254;28;20059;-75
2021/05/09 09:57:23;;;;;;;6.10;2.88;;;21.90;33.20;;;;;;4974923;28;20058;-82
2021/05/09 10:00:12;;;;;;;6.30;2.60;;;21.50;33.60;;;;;;4975345;28;20041;-80
2021/05/09 10:02:40;;;;;;;5.13;2.70;;;21.20;33.30;;;;;;4965926;28;20045;-74
2021/05/09 10:05:06;;;;;;;4.78;2.67;;;21.00;33.50;;;;;;5006005;28;20143;-75
2021/05/09 10:07:32;;;;;;;5.35;2.78;;;21.00;33.80;;;;;;4974473;28;20019;-73
2021/05/09 10:09:58;;;;;;;3.22;2.60;;;21.00;34.00;;;;;;4974565;28;20031;-75
2021/05/09 10:12:24;;;;;;;4.43;3.17;;;20.90;34.10;;;;;;4974751;28;20181;-74
2021/05/09 10:14:52;;;;;;;3.63;3.25;;;20.80;34.30;;;;;;4974077;28;20536;-75
2021/05/09 10:17:21;;;;;;;4.72;2.92;;;20.60;35.20;;;;;;4974510;28;20473;-74
2021/05/09 10:19:47;;;;;;;4.30;2.40;;;20.30;34.80;;;;;;4974337;28;20030;-76
2021/05/09 10:22:34;;;;;;;7.50;2.60;;;20.30;35.00;;;;;;4974365;28;20037;-76
2021/05/09 10:25:02;;;;;;;4.55;3.75;;;20.30;35.40;;;;;;4974059;28;20086;-75
2021/05/09 10:27:42;;;;;;;4.72;2.70;;;20.40;35.10;;;;;;4972889;28;20042;-75
2021/05/09 10:30:08;;;;;;;2.65;2.42;;;20.30;34.90;;;;;;5005459;28;20027;-75
2021/05/09 10:32:34;;;;;;;4.53;3.58;;;20.30;35.10;;;;;;5005342;28;20026;-75
2021/05/09 10:35:01;;;;;;;4.50;2.42;;;20.40;35.10;;;;;;4974343;28;20030;-75
2021/05/09 10:37:54;;;;;;;3.35;2.35;;;20.40;35.10;;;;;;4974184;28;20544;-74
2021/05/09 10:40:31;;;;;;;4.70;2.40;;;20.40;35.10;;;;;;4973676;28;20081;-75
2021/05/09 10:43:10;;;;;;;7.20;2.72;;;20.10;34.50;;;;;;4973915;28;20030;-75
2021/05/09 10:45:35;;;;;;;3.03;2.33;;;19.90;34.80;;;;;;4973931;28;20378;-75
2021/05/09 10:48:24;;;;;;;3.08;2.40;;;20.00;35.10;;;;;;4973985;28;20027;-74
2021/05/09 10:50:51;;;;;;;4.07;2.42;;;20.00;35.30;;;;;;4973894;28;20037;-75
2021/05/09 10:53:38;;;;;;;2.80;2.50;;;20.10;35.30;;;;;;4973772;28;20088;-74
2021/05/09 10:56:08;;;;;;;2.50;2.20;;;19.90;35.40;;;;;;5004842;28;20126;-75
2021/05/09 10:58:49;;;;;;;3.40;2.38;;;19.80;35.60;;;;;;5004911;28;20374;-75
2021/05/09 11:01:21;;;;;;;5.57;2.30;;;19.70;35.90;;;;;;4973358;28;20528;-75
2021/05/09 11:03:49;;;;;;;2.30;2.10;;;19.50;36.00;;;;;;4973397;28;20034;-75
2021/05/09 11:06:27;;;;;;;4.00;2.38;;;19.40;36.10;;;;;;4973555;28;20034;-75
2021/05/09 11:08:59;;;;;;;3.50;2.45;;;19.50;36.20;;;;;;4973565;28;20481;-74
2021/05/09 11:11:30;;;;;;;3.78;2.60;;;19.60;36.10;;;;;;4973189;28;20066;-74
2021/05/09 11:14:03;;;;;;;2.83;2.53;;;19.70;35.70;;;;;;4973615;28;20057;-76
2021/05/09 11:16:40;;;;;;;3.90;2.45;;;19.90;35.60;;;;;;4973302;28;20031;-75
2021/05/09 11:19:09;;;;;;;2.85;2.42;;;20.00;35.70;;;;;;4973250;28;20385;-77
2021/05/09 11:21:46;;;;;;;4.35;2.50;;;19.90;35.10;;;;;;4973351;28;20050;-74
2021/05/09 11:24:22;;;;;;;5.50;3.38;;;19.70;35.00;;;;;;5004576;28;20023;-74
2021/05/09 11:26:49;;;;;;;10.32;2.53;;;19.50;35.60;;;;;;4973105;28;20486;-73
2021/05/09 11:29:29;;;;;;;4.38;2.47;;;19.60;36.20;;;;;;5004278;28;20719;-74
2021/05/09 11:31:58;;;;;;;3.88;2.47;;;19.70;36.60;;;;;;4973256;28;20034;-74
2021/05/09 11:34:27;;;;;;;3.90;2.42;;;19.80;36.40;;;;;;4973215;28;20105;-74
2021/05/09 11:36:57;;;;;;;5.05;2.80;;;19.90;36.50;;;;;;4972882;28;20497;-74
2021/05/09 11:39:39;;;;;;;5.97;2.50;;;20.10;36.70;;;;;;4973099;28;20047;-75
2021/05/09 11:42:28;;;;;;;4.45;3.00;;;20.20;36.70;;;;;;5004699;28;20058;-74
2021/05/09 11:44:56;;;;;;;5.97;2.30;;;20.30;36.50;;;;;;4972664;28;20129;-75
2021/05/09 11:47:24;;;;;;;3.25;2.65;;;20.30;36.50;;;;;;4973004;28;20462;-75
2021/05/09 11:49:57;;;;;;;5.25;2.67;;;20.10;36.60;;;;;;4973019;28;20034;-75
2021/05/09 11:52:26;;;;;;;9.93;2.67;;;19.90;36.80;;;;;;4972939;28;20031;-75
2021/05/09 11:54:54;;;;;;;3.78;2.33;;;19.90;36.90;;;;;;4972752;28;20034;-75
2021/05/09 11:57:22;;;;;;;4.13;2.42;;;19.90;36.80;;;;;;4972860;28;20034;-75
2021/05/09 11:59:56;;;;;;;7.45;2.58;;;19.80;36.90;;;;;;5003938;28;20030;-75
2021/05/09 12:02:28;;;;;;;3.60;2.25;;;19.70;37.20;;;;;;4973037;28;20090;-76
2021/05/09 12:05:11;;;;;;;5.20;2.90;;;19.70;37.20;;;;;;4972926;28;20027;-75
2021/05/09 12:07:44;;;;;;;4.88;2.70;;;19.60;37.30;;;;;;4973103;28;20039;-75
2021/05/09 12:10:25;;;;;;;2.70;2.50;;;19.60;37.50;;;;;;4972574;28;20046;-78
2021/05/09 12:13:04;;;;;;;6.45;3.00;;;19.50;37.60;;;;;;4973386;28;20173;-77
2021/05/09 12:15:35;;;;;;;5.57;3.00;;;19.40;37.70;;;;;;4972854;28;20046;-77
2021/05/09 12:18:01;;;;;;;3.70;2.40;;;19.40;37.80;;;;;;4973355;28;20023;-78
2021/05/09 12:20:32;;;;;;;9.88;4.10;;;19.40;37.80;;;;;;4973844;28;20015;-77
2021/05/09 12:23:31;;;;;;;8.85;3.10;;;19.40;37.70;;;;;;4973288;28;20552;-78
2021/05/09 12:25:56;;;;;;;5.43;3.38;;;19.40;37.70;;;;;;4940447;28;20082;-78
2021/05/09 12:28:33;;;;;;;4.07;2.80;;;19.50;37.70;;;;;;5004056;28;20596;-78
2021/05/09 12:31:09;;;;;;;5.43;2.10;;;19.50;37.30;;;;;;4973041;28;20516;-78
2021/05/09 12:33:35;;;;;;;4.18;2.00;;;19.40;37.10;;;;;;4972991;28;20035;-78
2021/05/09 12:36:11;;;;;;;5.22;2.55;;;19.30;37.10;;;;;;4972611;28;20089;-77
2021/05/09 12:38:37;;;;;;;8.45;3.00;;;19.20;37.20;;;;;;4972559;28;20030;-74
2021/05/09 12:41:07;;;;;;;4.25;2.53;;;19.20;37.40;;;;;;4972461;28;20022;-75
2021/05/09 12:43:44;;;;;;;2.20;2.00;;;19.20;37.50;;;;;;4972595;28;20131;-81
2021/05/09 12:46:32;;;;;;;4.53;2.30;;;19.10;37.10;;;;;;4971996;28;20030;-75
2021/05/09 12:49:12;;;;;;;6.78;4.03;;;19.00;37.30;;;;;;4972419;28;20037;-77
2021/05/09 12:51:56;;;;;;;4.32;2.30;;;19.00;37.60;;;;;;4972601;28;20023;-75
2021/05/09 12:54:41;;;;;;;3.63;2.40;;;19.00;37.50;;;;;;4972194;28;20027;-77